createdAt,value
2019-06-25T00:00:19.965Z,0.00
2019-06-25T00:01:19.990Z,0.00
2019-06-25T00:02:20.019Z,0.00
2019-06-25T00:03:20.053Z,0.00
2019-06-25T00:04:20.084Z,0.00
2019-06-25T00:05:20.159Z,0.00
2019-06-25T00:06:20.150Z,0.00
2019-06-25T00:07:20.176Z,0.00
2019-06-25T00:08:20.213Z,0.00
2019-06-25T00:09:20.243Z,0.00
2019-06-25T00:10:20.273Z,0.00
2019-06-25T00:11:20.307Z,0.00
2019-06-25T00:12:20.342Z,0.00
2019-06-25T00:13:20.364Z,0.00
2019-06-25T00:14:20.397Z,0.00
2019-06-25T00:15:20.466Z,0.00
2019-06-25T00:16:20.459Z,0.00
2019-06-25T00:17:20.488Z,0.00
2019-06-25T00:18:20.527Z,0.00
2019-06-25T00:19:20.559Z,0.00
2019-06-25T00:20:20.584Z,0.00
2019-06-25T00:21:20.614Z,0.00
2019-06-25T00:22:20.643Z,0.00
2019-06-25T00:23:20.675Z,0.00
2019-06-25T00:24:20.707Z,0.00
2019-06-25T00:25:20.739Z,0.00
2019-06-25T00:26:20.775Z,0.00
2019-06-25T00:27:20.803Z,0.00
2019-06-25T00:28:20.832Z,0.00
2019-06-25T00:29:20.864Z,0.00
2019-06-25T00:30:20.896Z,0.00
2019-06-25T00:31:20.931Z,0.00
2019-06-25T00:32:20.961Z,0.00
2019-06-25T00:33:20.988Z,0.00
2019-06-25T00:34:21.027Z,0.00
2019-06-25T00:35:21.057Z,0.00
2019-06-25T00:36:21.099Z,0.00
2019-06-25T00:37:21.111Z,0.00
2019-06-25T00:38:21.153Z,0.00
2019-06-25T00:39:21.184Z,0.00
2019-06-25T00:40:21.235Z,0.00
2019-06-25T00:41:21.244Z,0.00
2019-06-25T00:42:21.266Z,0.00
2019-06-25T00:43:21.306Z,0.00
2019-06-25T00:44:21.329Z,0.00
2019-06-25T00:45:21.369Z,0.00
2019-06-25T00:46:21.392Z,0.00
2019-06-25T00:47:21.423Z,0.00
2019-06-25T00:48:21.456Z,0.00
2019-06-25T00:49:21.490Z,0.00
2019-06-25T00:50:21.524Z,0.00
2019-06-25T00:51:21.551Z,0.00
2019-06-25T00:52:21.598Z,0.00
2019-06-25T00:53:21.621Z,0.00
2019-06-25T00:54:21.649Z,0.00
2019-06-25T00:55:21.673Z,0.00
2019-06-25T00:58:14.318Z,0.00
2019-06-25T00:59:14.341Z,0.00
2019-06-25T01:00:14.384Z,0.00
2019-06-25T01:01:14.405Z,0.00
2019-06-25T01:02:14.433Z,0.00
2019-06-25T01:03:14.468Z,0.00
2019-06-25T01:04:14.497Z,0.00
2019-06-25T01:05:14.527Z,0.00
2019-06-25T01:06:14.559Z,0.00
2019-06-25T01:07:14.595Z,0.00
2019-06-25T01:08:14.619Z,0.00
2019-06-25T01:09:14.658Z,0.00
2019-06-25T01:10:14.681Z,0.00
2019-06-25T01:11:14.720Z,0.00
2019-06-25T01:12:14.745Z,0.00
2019-06-25T01:13:14.775Z,0.00
2019-06-25T01:14:14.805Z,0.00
2019-06-25T01:15:14.844Z,0.00
2019-06-25T01:16:14.867Z,0.00
2019-06-25T01:17:14.908Z,0.00
2019-06-25T01:18:14.930Z,0.00
2019-06-25T01:19:14.977Z,0.00
2019-06-25T01:20:14.990Z,0.00
2019-06-25T01:21:15.028Z,0.00
2019-06-25T01:22:15.058Z,0.00
2019-06-25T01:23:15.085Z,0.00
2019-06-25T01:24:15.123Z,0.00
2019-06-25T01:25:15.151Z,0.00
2019-06-25T01:26:15.186Z,0.00
2019-06-25T01:27:15.210Z,0.00
2019-06-25T01:28:15.237Z,0.00
2019-06-25T01:29:15.270Z,0.00
2019-06-25T01:30:28.386Z,0.00
2019-06-25T01:31:15.332Z,0.00
2019-06-25T01:32:15.364Z,0.00
2019-06-25T01:33:15.400Z,0.00
2019-06-25T01:34:15.428Z,0.00
2019-06-25T01:35:15.465Z,0.00
2019-06-25T01:36:15.490Z,0.00
2019-06-25T01:37:15.518Z,0.00
2019-06-25T01:38:15.552Z,0.00
2019-06-25T01:39:15.590Z,0.00
2019-06-25T01:40:15.609Z,0.00
2019-06-25T01:41:15.651Z,0.00
2019-06-25T01:42:15.671Z,0.00
2019-06-25T01:43:15.709Z,0.00
2019-06-25T01:44:15.730Z,0.00
2019-06-25T01:45:15.764Z,0.00
2019-06-25T01:46:15.800Z,0.00
2019-06-25T01:47:15.831Z,0.00
2019-06-25T01:48:15.861Z,0.00
2019-06-25T01:49:15.884Z,0.00
2019-06-25T01:50:15.923Z,0.00
2019-06-25T01:51:15.953Z,0.00
2019-06-25T01:52:15.977Z,0.00
2019-06-25T01:53:16.016Z,0.00
2019-06-25T01:54:16.037Z,0.00
2019-06-25T01:55:16.076Z,0.00
2019-06-25T01:56:16.099Z,0.00
2019-06-25T01:57:16.140Z,0.00
2019-06-25T01:58:16.163Z,0.00
2019-06-25T01:59:16.194Z,0.00
2019-06-25T02:00:16.225Z,0.00
2019-06-25T02:01:16.255Z,0.00
2019-06-25T02:02:16.291Z,0.00
2019-06-25T02:03:16.315Z,0.00
2019-06-25T02:04:16.351Z,0.00
2019-06-25T02:05:16.376Z,0.00
2019-06-25T02:06:16.408Z,0.00
2019-06-25T02:07:16.439Z,0.00
2019-06-25T02:08:16.475Z,0.00
2019-06-25T02:09:16.498Z,0.00
2019-06-25T02:10:16.528Z,0.00
2019-06-25T02:11:16.565Z,0.00
2019-06-25T02:12:16.600Z,0.00
2019-06-25T02:13:16.623Z,0.00
2019-06-25T02:14:16.651Z,0.00
2019-06-25T02:15:16.691Z,0.00
2019-06-25T02:16:16.731Z,0.00
2019-06-25T02:17:16.762Z,0.00
2019-06-25T02:18:16.778Z,0.00
2019-06-25T02:19:16.815Z,0.00
2019-06-25T02:20:16.837Z,0.00
2019-06-25T02:21:16.870Z,0.00
2019-06-25T02:22:16.896Z,0.00
2019-06-25T02:23:16.963Z,0.00
2019-06-25T02:24:16.966Z,0.00
2019-06-25T02:25:16.990Z,0.00
2019-06-25T02:26:17.028Z,0.00
2019-06-25T02:27:17.050Z,0.00
2019-06-25T02:28:17.080Z,4.00
2019-06-25T02:29:17.120Z,4.00
2019-06-25T02:30:17.141Z,4.00
2019-06-25T02:31:17.181Z,4.00
2019-06-25T02:32:17.211Z,4.00
2019-06-25T02:33:17.239Z,0.00
2019-06-25T02:34:17.318Z,4.00
2019-06-25T02:35:17.294Z,4.00
2019-06-25T02:36:17.334Z,4.00
2019-06-25T02:37:17.356Z,8.00
2019-06-25T02:38:17.387Z,8.00
2019-06-25T02:39:17.424Z,4.00
2019-06-25T02:40:17.452Z,8.00
2019-06-25T02:41:17.486Z,8.00
2019-06-25T02:42:17.510Z,8.00
2019-06-25T02:43:17.539Z,12.00
2019-06-25T02:44:17.576Z,12.00
2019-06-25T02:45:17.606Z,12.00
2019-06-25T02:46:17.637Z,12.00
2019-06-25T02:47:17.671Z,16.00
2019-06-25T02:48:17.695Z,20.00
2019-06-25T02:49:17.731Z,20.00
2019-06-25T02:50:17.755Z,20.00
2019-06-25T02:51:17.784Z,24.00
2019-06-25T02:52:17.822Z,28.00
2019-06-25T02:53:17.847Z,32.00
2019-06-25T02:54:17.876Z,32.00
2019-06-25T02:55:17.911Z,40.00
2019-06-25T02:56:17.939Z,40.00
2019-06-25T02:57:17.979Z,48.00
2019-06-25T02:58:18.004Z,52.00
2019-06-25T02:59:18.041Z,56.00
2019-06-25T03:00:18.060Z,64.00
2019-06-25T03:01:28.376Z,72.00
2019-06-25T03:02:18.151Z,84.00
2019-06-25T03:03:18.160Z,88.00
2019-06-25T03:04:18.179Z,100.00
2019-06-25T03:05:18.216Z,108.00
2019-06-25T03:06:18.239Z,120.00
2019-06-25T03:07:18.272Z,124.00
2019-06-25T03:08:18.333Z,136.00
2019-06-25T03:09:18.338Z,144.00
2019-06-25T03:10:18.366Z,156.00
2019-06-25T03:11:18.394Z,168.00
2019-06-25T03:12:18.421Z,176.00
2019-06-25T03:13:18.458Z,192.00
2019-06-25T03:14:18.488Z,204.00
2019-06-25T03:15:18.533Z,220.00
2019-06-25T03:16:18.563Z,232.00
2019-06-25T03:17:18.574Z,256.00
2019-06-25T03:18:18.606Z,276.00
2019-06-25T03:19:18.642Z,300.00
2019-06-25T03:20:18.679Z,324.00
2019-06-25T03:21:18.695Z,348.00
2019-06-25T03:22:18.732Z,380.00
2019-06-25T03:23:18.763Z,404.00
2019-06-25T03:24:18.789Z,436.00
2019-06-25T03:25:18.823Z,468.00
2019-06-25T03:26:18.858Z,500.00
2019-06-25T03:27:18.883Z,532.00
2019-06-25T03:28:18.907Z,564.00
2019-06-25T03:29:18.943Z,608.00
2019-06-25T03:30:18.988Z,648.00
2019-06-25T03:31:19.000Z,696.00
2019-06-25T03:32:19.034Z,744.00
2019-06-25T03:33:19.061Z,792.00
2019-06-25T03:34:19.090Z,840.00
2019-06-25T03:35:19.127Z,888.00
2019-06-25T03:36:19.152Z,928.00
2019-06-25T03:37:19.184Z,972.00
2019-06-25T03:38:19.214Z,1008.00
2019-06-25T03:39:19.259Z,1052.00
2019-06-25T03:40:19.283Z,1096.00
2019-06-25T03:41:19.312Z,1140.00
2019-06-25T03:42:19.335Z,1188.00
2019-06-25T03:43:19.375Z,1240.00
2019-06-25T03:44:19.393Z,1288.00
2019-06-25T03:45:19.426Z,1340.00
2019-06-25T03:46:19.454Z,1384.00
2019-06-25T03:47:19.484Z,1440.00
2019-06-25T03:48:19.523Z,1488.00
2019-06-25T03:49:19.546Z,1540.00
2019-06-25T03:50:19.578Z,1588.00
2019-06-25T03:51:19.606Z,1636.00
2019-06-25T03:52:19.641Z,1688.00
2019-06-25T03:53:19.667Z,1740.00
2019-06-25T03:54:19.703Z,1792.00
2019-06-25T03:55:19.735Z,1840.00
2019-06-25T03:56:19.758Z,1888.00
2019-06-25T03:57:19.797Z,1932.00
2019-06-25T03:58:19.828Z,1968.00
2019-06-25T03:59:19.855Z,2008.00
2019-06-25T04:00:19.882Z,2052.00
2019-06-25T04:01:19.918Z,2096.00
2019-06-25T04:02:19.943Z,2140.00
2019-06-25T04:03:19.997Z,2180.00
2019-06-25T04:04:20.002Z,2224.00
2019-06-25T04:05:20.062Z,2264.00
2019-06-25T04:06:20.064Z,2296.00
2019-06-25T04:07:20.093Z,2328.00
2019-06-25T04:08:20.128Z,2360.00
2019-06-25T04:09:20.156Z,2392.00
2019-06-25T04:10:20.188Z,2416.00
2019-06-25T04:11:20.216Z,2448.00
2019-06-25T04:12:20.256Z,2484.00
2019-06-25T04:13:20.278Z,2524.00
2019-06-25T04:14:20.308Z,2560.00
2019-06-25T04:15:20.340Z,2604.00
2019-06-25T04:16:20.371Z,2644.00
2019-06-25T04:17:20.397Z,2688.00
2019-06-25T04:18:20.436Z,2728.00
2019-06-25T04:19:20.458Z,2768.00
2019-06-25T04:20:20.492Z,2796.00
2019-06-25T04:21:20.520Z,2836.00
2019-06-25T04:22:20.559Z,2884.00
2019-06-25T04:23:20.582Z,2920.00
2019-06-25T04:24:20.613Z,2972.00
2019-06-25T04:25:20.647Z,3028.00
2019-06-25T04:26:20.671Z,3068.00
2019-06-25T04:27:20.715Z,3100.00
2019-06-25T04:28:20.743Z,3128.00
2019-06-25T04:29:20.785Z,3160.00
2019-06-25T04:30:20.793Z,3176.00
2019-06-25T04:31:20.826Z,3196.00
2019-06-25T04:32:32.781Z,3200.00
2019-06-25T04:33:20.899Z,3220.00
2019-06-25T04:34:20.918Z,3252.00
2019-06-25T04:35:20.955Z,3316.00
2019-06-25T04:36:20.979Z,3388.00
2019-06-25T04:37:21.016Z,3460.00
2019-06-25T04:38:21.041Z,3540.00
2019-06-25T04:39:21.075Z,3632.00
2019-06-25T04:40:21.103Z,3720.00
2019-06-25T04:41:21.134Z,3888.00
2019-06-25T04:42:21.161Z,3972.00
2019-06-25T04:43:21.200Z,3980.00
2019-06-25T04:44:21.225Z,4048.00
2019-06-25T04:45:21.263Z,4128.00
2019-06-25T04:46:21.287Z,4216.00
2019-06-25T04:47:21.319Z,4312.00
2019-06-25T04:48:21.347Z,4420.00
2019-06-25T04:49:21.377Z,4516.00
2019-06-25T04:50:21.409Z,4612.00
2019-06-25T04:51:21.437Z,4792.00
2019-06-25T04:52:21.473Z,5004.00
2019-06-25T04:53:21.501Z,5300.00
2019-06-25T04:54:21.531Z,5448.00
2019-06-25T04:55:21.562Z,5820.00
2019-06-25T04:56:21.600Z,6044.00
2019-06-25T04:57:21.624Z,6140.00
2019-06-25T04:58:21.653Z,6320.00
2019-06-25T04:59:21.687Z,6572.00
2019-06-25T05:00:21.722Z,6920.00
2019-06-25T05:01:21.744Z,7040.00
2019-06-25T05:02:21.782Z,7040.00
2019-06-25T05:03:21.807Z,7160.00
2019-06-25T05:04:21.852Z,7240.00
2019-06-25T05:05:21.881Z,7268.00
2019-06-25T05:06:21.903Z,7220.00
2019-06-25T05:07:21.932Z,7180.00
2019-06-25T05:08:21.961Z,7024.00
2019-06-25T05:09:21.997Z,7020.00
2019-06-25T05:10:22.027Z,6556.00
2019-06-25T05:11:22.058Z,6160.00
2019-06-25T05:12:22.087Z,6040.00
2019-06-25T05:13:22.122Z,5972.00
2019-06-25T05:14:24.787Z,5916.00
2019-06-25T05:15:22.185Z,5860.00
2019-06-25T05:16:22.220Z,5792.00
2019-06-25T05:17:22.244Z,5720.00
2019-06-25T05:18:22.285Z,5640.00
2019-06-25T05:19:22.329Z,5560.00
2019-06-25T05:20:22.340Z,5504.00
2019-06-25T05:21:22.369Z,5448.00
2019-06-25T05:22:22.397Z,5404.00
2019-06-25T05:23:22.432Z,5360.00
2019-06-25T05:24:22.467Z,5340.00
2019-06-25T05:25:22.491Z,5332.00
2019-06-25T05:26:22.522Z,5332.00
2019-06-25T05:27:22.562Z,5332.00
2019-06-25T05:28:22.584Z,5304.00
2019-06-25T05:29:22.622Z,5268.00
2019-06-25T05:30:22.644Z,5224.00
2019-06-25T05:31:25.853Z,5180.00
2019-06-25T05:32:22.714Z,5124.00
2019-06-25T05:33:22.752Z,5044.00
2019-06-25T05:34:22.769Z,4964.00
2019-06-25T05:35:24.271Z,4880.00
2019-06-25T05:36:22.834Z,4812.00
2019-06-25T05:37:22.863Z,4752.00
2019-06-25T05:38:22.894Z,4724.00
2019-06-25T05:39:22.927Z,4728.00
2019-06-25T05:40:22.964Z,4772.00
2019-06-25T05:41:22.995Z,4848.00
2019-06-25T05:42:23.018Z,4940.00
2019-06-25T05:43:23.055Z,5036.00
2019-06-25T05:44:23.083Z,5148.00
2019-06-25T05:45:23.115Z,5324.00
2019-06-25T05:46:23.155Z,5612.00
2019-06-25T05:47:23.266Z,6148.00
2019-06-25T05:48:23.205Z,8416.00
2019-06-25T05:49:23.240Z,12720.00
2019-06-25T05:50:23.269Z,8104.00
2019-06-25T05:51:23.299Z,7908.00
2019-06-25T05:52:23.342Z,12124.00
2019-06-25T05:53:23.374Z,16320.00
2019-06-25T05:54:23.391Z,14968.00
2019-06-25T05:55:23.429Z,17984.00
2019-06-25T05:56:23.457Z,21184.00
2019-06-25T05:57:23.495Z,26624.00
2019-06-25T05:58:23.526Z,27104.00
2019-06-25T05:59:23.547Z,31456.00
2019-06-25T06:00:23.582Z,38624.00
2019-06-25T06:01:23.613Z,41728.00
2019-06-25T06:02:23.645Z,33664.00
2019-06-25T06:03:23.683Z,31200.00
2019-06-25T06:04:23.709Z,30528.00
2019-06-25T06:05:23.738Z,34080.00
2019-06-25T06:06:23.769Z,28480.00
2019-06-25T06:07:23.802Z,28992.00
2019-06-25T06:08:23.837Z,30752.00
2019-06-25T06:09:23.869Z,28384.00
2019-06-25T06:10:23.900Z,26400.00
2019-06-25T06:11:26.603Z,23904.00
2019-06-25T06:12:23.958Z,27520.00
2019-06-25T06:13:23.993Z,21600.00
2019-06-25T06:14:24.145Z,18496.00
2019-06-25T06:15:24.069Z,24608.00
2019-06-25T06:16:24.104Z,21248.00
2019-06-25T06:17:24.131Z,24352.00
2019-06-25T06:18:24.156Z,23456.00
2019-06-25T06:19:24.184Z,18816.00
2019-06-25T06:20:24.542Z,19744.00
2019-06-25T06:21:24.262Z,23872.00
2019-06-25T06:22:24.282Z,24384.00
2019-06-25T06:23:24.314Z,25920.00
2019-06-25T06:24:24.383Z,19840.00
2019-06-25T06:25:24.385Z,22944.00
2019-06-25T06:26:24.414Z,24576.00
2019-06-25T06:28:24.481Z,25632.00
2019-06-25T06:29:24.516Z,26272.00
2019-06-25T06:30:24.549Z,20736.00
2019-06-25T06:31:24.582Z,11868.00
2019-06-25T06:32:24.620Z,12728.00
2019-06-25T06:33:36.264Z,11512.00
2019-06-25T06:34:24.681Z,10960.00
2019-06-25T06:35:24.767Z,22496.00
2019-06-25T06:36:24.749Z,14548.00
2019-06-25T06:37:24.785Z,25056.00
2019-06-25T06:38:24.816Z,26400.00
2019-06-25T06:39:24.852Z,28384.00
2019-06-25T06:40:25.897Z,27264.00
2019-06-25T06:41:24.924Z,25184.00
2019-06-25T06:42:24.962Z,25408.00
2019-06-25T06:43:24.991Z,26336.00
2019-06-25T06:44:25.072Z,24608.00
2019-06-25T06:45:25.056Z,22368.00
2019-06-25T06:46:25.097Z,21856.00
2019-06-25T06:47:25.125Z,23840.00
2019-06-25T06:48:25.165Z,20608.00
2019-06-25T06:49:25.197Z,23968.00
2019-06-25T06:50:25.231Z,23040.00
2019-06-25T06:51:25.263Z,25472.00
2019-06-25T06:52:25.368Z,28224.00
2019-06-25T06:53:25.340Z,27808.00
2019-06-25T06:54:25.404Z,28448.00
2019-06-25T06:56:30.708Z,30656.00
2019-06-25T06:57:25.471Z,30144.00
2019-06-25T06:58:25.514Z,29280.00
2019-06-25T06:59:25.557Z,28384.00
2019-06-25T07:00:25.584Z,25312.00
2019-06-25T07:01:25.614Z,24800.00
2019-06-25T07:02:25.650Z,29696.00
2019-06-25T07:03:25.684Z,26720.00
2019-06-25T07:04:25.718Z,25376.00
2019-06-25T07:05:25.754Z,24736.00
2019-06-25T07:06:25.794Z,24928.00
2019-06-25T07:07:25.823Z,26240.00
2019-06-25T07:08:25.862Z,27776.00
2019-06-25T07:09:25.898Z,28288.00
2019-06-25T07:10:25.931Z,31808.00
2019-06-25T07:11:25.964Z,36448.00
2019-06-25T07:13:26.041Z,37152.00
2019-06-25T07:14:26.073Z,44448.00
2019-06-25T07:15:26.193Z,34304.00
2019-06-25T07:16:26.141Z,32544.00
2019-06-25T07:17:26.217Z,39488.00
2019-06-25T07:18:26.219Z,43072.00
2019-06-25T07:19:26.250Z,48480.00
2019-06-25T07:20:33.684Z,39968.00
2019-06-25T07:21:26.318Z,37248.00
2019-06-25T07:22:26.356Z,34240.00
2019-06-25T07:23:26.395Z,36352.00
2019-06-25T07:24:26.433Z,36032.00
2019-06-25T07:25:26.463Z,41952.00
2019-06-25T07:26:26.496Z,40992.00
2019-06-25T07:27:27.338Z,48160.00
2019-06-25T07:28:26.607Z,54336.00
2019-06-25T07:29:26.613Z,58432.00
2019-06-25T07:30:26.652Z,59488.00
2019-06-25T07:31:26.676Z,60448.00
2019-06-25T07:32:26.716Z,57056.00
2019-06-25T07:33:26.760Z,49312.00
2019-06-25T07:34:26.790Z,55488.00
2019-06-25T07:35:26.824Z,56416.00
2019-06-25T07:36:26.860Z,54112.00
2019-06-25T07:37:26.895Z,57120.00
2019-06-25T07:38:26.933Z,54624.00
2019-06-25T07:39:26.981Z,52448.00
2019-06-25T07:40:27.014Z,52768.00
2019-06-25T07:41:27.064Z,52288.00
2019-06-25T07:42:27.077Z,57472.00
2019-06-25T07:43:27.115Z,54400.00
2019-06-25T07:44:27.202Z,55360.00
2019-06-25T07:45:27.197Z,57760.00
2019-06-25T07:46:27.230Z,58208.00
2019-06-25T07:47:27.263Z,58368.00
2019-06-25T07:48:27.341Z,52576.00
2019-06-25T07:49:27.346Z,60320.00
2019-06-25T07:50:27.379Z,60384.00
2019-06-25T07:51:27.418Z,57216.00
2019-06-25T07:52:27.448Z,56768.00
2019-06-25T07:53:27.488Z,58752.00
2019-06-25T07:54:27.527Z,58112.00
2019-06-25T07:55:27.640Z,57664.00
2019-06-25T07:56:36.781Z,57344.00
2019-06-25T07:57:27.632Z,55872.00
2019-06-25T07:58:27.674Z,50880.00
2019-06-25T07:59:27.709Z,48064.00
2019-06-25T08:00:27.747Z,54144.00
2019-06-25T08:01:27.789Z,54944.00
2019-06-25T08:02:27.824Z,57632.00
2019-06-25T08:03:28.939Z,54688.00
2019-06-25T08:04:27.915Z,52128.00
2019-06-25T08:05:27.952Z,53568.00
2019-06-25T08:06:28.298Z,50400.00
2019-06-25T08:07:28.018Z,46688.00
2019-06-25T08:08:28.105Z,49824.00
2019-06-25T08:09:28.795Z,49760.00
2019-06-25T08:10:28.125Z,43744.00
2019-06-25T08:11:28.479Z,43840.00
2019-06-25T08:12:28.228Z,48320.00
2019-06-25T08:13:28.245Z,52064.00
2019-06-25T08:14:28.290Z,55168.00
2019-06-25T08:15:28.527Z,59104.00
2019-06-25T08:16:28.363Z,61760.00
2019-06-25T08:17:28.417Z,61856.00
2019-06-25T08:18:28.430Z,58976.00
2019-06-25T08:19:28.473Z,57376.00
2019-06-25T08:20:28.505Z,57728.00
2019-06-25T08:21:28.550Z,58144.00
2019-06-25T08:22:28.595Z,58048.00
2019-06-25T08:23:28.628Z,58816.00
2019-06-25T08:24:28.660Z,61440.00
2019-06-25T08:25:28.699Z,63200.00
2019-06-25T08:26:28.740Z,61120.00
2019-06-25T08:27:28.781Z,60416.00
2019-06-25T08:28:28.825Z,57056.00
2019-06-25T08:29:28.852Z,54176.00
2019-06-25T08:30:28.897Z,56928.00
2019-06-25T08:31:29.248Z,65184.00
2019-06-25T08:32:28.987Z,65056.00
2019-06-25T08:33:29.248Z,64032.00
2019-06-25T08:34:41.300Z,66144.00
2019-06-25T08:35:29.099Z,62272.00
2019-06-25T08:36:29.121Z,63840.00
2019-06-25T08:37:29.165Z,70144.00
2019-06-25T08:38:29.198Z,69312.00
2019-06-25T08:39:29.232Z,70944.00
2019-06-25T08:40:29.527Z,71680.00
2019-06-25T08:41:29.321Z,66912.00
2019-06-25T08:42:29.347Z,71456.00
2019-06-25T08:43:30.446Z,71104.00
2019-06-25T08:45:12.013Z,69280.00
2019-06-25T08:46:12.047Z,67872.00
2019-06-25T08:47:12.068Z,68288.00
2019-06-25T08:48:59.697Z,70528.00
2019-06-25T08:49:59.704Z,71264.00
2019-06-25T08:50:59.751Z,70944.00
2019-06-25T08:51:59.786Z,70528.00
2019-06-25T08:52:59.823Z,70208.00
2019-06-25T08:53:59.861Z,70720.00
2019-06-25T08:54:59.899Z,72096.00
2019-06-25T08:55:59.938Z,73120.00
2019-06-25T08:57:42.560Z,72576.00
2019-06-25T08:58:42.590Z,71904.00
2019-06-25T08:59:42.621Z,71488.00
2019-06-25T09:00:42.654Z,71744.00
2019-06-25T09:01:42.695Z,72192.00
2019-06-25T09:02:42.738Z,72224.00
2019-06-25T09:03:42.770Z,73088.00
2019-06-25T09:04:56.957Z,73504.00
2019-06-25T09:05:42.851Z,73312.00
2019-06-25T09:06:42.907Z,72160.00
2019-06-25T09:08:50.558Z,72064.00
2019-06-25T09:09:50.589Z,72256.00
2019-06-25T09:10:50.639Z,69120.00
2019-06-25T09:11:50.669Z,68928.00
2019-06-25T09:12:53.336Z,69472.00
2019-06-25T09:13:50.749Z,68480.00
2019-06-25T09:14:50.820Z,70112.00
2019-06-25T09:15:50.829Z,70912.00
2019-06-25T09:16:50.890Z,69216.00
2019-06-25T09:17:51.916Z,70176.00
2019-06-25T09:18:50.941Z,70784.00
2019-06-25T09:19:50.977Z,69504.00
2019-06-25T09:20:51.019Z,71456.00
2019-06-25T09:21:51.070Z,72896.00
2019-06-25T09:22:51.116Z,72160.00
2019-06-25T09:23:51.139Z,70272.00
2019-06-25T09:24:51.175Z,69056.00
2019-06-25T09:25:51.220Z,68480.00
2019-06-25T09:26:51.256Z,70080.00
2019-06-25T09:27:51.336Z,72864.00
2019-06-25T09:28:51.338Z,72384.00
2019-06-25T09:29:51.385Z,73984.00
2019-06-25T09:31:36.602Z,72192.00
2019-06-25T09:32:34.816Z,72224.00
2019-06-25T09:33:34.053Z,73472.00
2019-06-25T09:34:34.108Z,72448.00
2019-06-25T09:35:34.127Z,70848.00
2019-06-25T09:36:34.176Z,71360.00
2019-06-25T09:37:34.207Z,71424.00
2019-06-25T09:38:34.255Z,70304.00
2019-06-25T09:39:34.288Z,70176.00
2019-06-25T09:40:34.329Z,69600.00
2019-06-25T09:41:34.374Z,69024.00
2019-06-25T09:42:34.408Z,68096.00
2019-06-25T09:43:34.453Z,68352.00
2019-06-25T09:44:34.503Z,68320.00
2019-06-25T09:45:34.679Z,69120.00
2019-06-25T09:46:34.568Z,67296.00
2019-06-25T09:47:34.612Z,67104.00
2019-06-25T09:48:34.651Z,67360.00
2019-06-25T09:49:34.690Z,68128.00
2019-06-25T09:50:34.733Z,67776.00
2019-06-25T09:51:34.772Z,67712.00
2019-06-25T09:52:34.826Z,68800.00
2019-06-25T09:53:34.874Z,68064.00
2019-06-25T09:54:34.901Z,67008.00
2019-06-25T09:55:34.930Z,66144.00
2019-06-25T09:56:34.977Z,66400.00
2019-06-25T09:57:35.028Z,63584.00
2019-06-25T09:58:35.066Z,60192.00
2019-06-25T09:59:35.110Z,60832.00
2019-06-25T10:00:35.133Z,62016.00
2019-06-25T10:01:44.819Z,61760.00
2019-06-25T10:02:35.218Z,64160.00
2019-06-25T10:03:35.253Z,64224.00
2019-06-25T10:04:35.962Z,63904.00
2019-06-25T10:05:35.338Z,66048.00
2019-06-25T10:06:35.379Z,63616.00
2019-06-25T10:07:35.416Z,63232.00
2019-06-25T10:08:35.465Z,63232.00
2019-06-25T10:09:35.493Z,63872.00
2019-06-25T10:10:35.707Z,62752.00
2019-06-25T10:12:18.144Z,58432.00
2019-06-25T10:13:18.173Z,60064.00
2019-06-25T10:14:18.274Z,61728.00
2019-06-25T10:15:18.489Z,62656.00
2019-06-25T10:16:18.299Z,62656.00
2019-06-25T10:17:18.337Z,62880.00
2019-06-25T10:18:18.375Z,63104.00
2019-06-25T10:20:16.224Z,59328.00
2019-06-25T10:21:16.148Z,60576.00
2019-06-25T10:22:16.102Z,63136.00
2019-06-25T10:23:16.141Z,64416.00
2019-06-25T10:24:16.191Z,63872.00
2019-06-25T10:25:16.232Z,61088.00
2019-06-25T10:26:16.257Z,58112.00
2019-06-25T10:27:16.297Z,58240.00
2019-06-25T10:28:59.717Z,59744.00
2019-06-25T10:29:58.944Z,60544.00
2019-06-25T10:30:58.989Z,59456.00
2019-06-25T10:31:59.029Z,59104.00
2019-06-25T10:32:59.056Z,59968.00
2019-06-25T10:33:59.102Z,59968.00
2019-06-25T10:35:02.263Z,61024.00
2019-06-25T10:35:59.177Z,60480.00
2019-06-25T10:36:59.222Z,59328.00
2019-06-25T10:37:59.263Z,59872.00
2019-06-25T10:38:59.298Z,61152.00
2019-06-25T10:39:59.359Z,60416.00
2019-06-25T10:40:59.381Z,59648.00
2019-06-25T10:41:59.432Z,58912.00
2019-06-25T10:42:59.464Z,60000.00
2019-06-25T10:43:59.498Z,60800.00
2019-06-25T10:44:59.539Z,58656.00
2019-06-25T10:45:59.588Z,55360.00
2019-06-25T10:46:59.640Z,49600.00
2019-06-25T10:47:59.661Z,41280.00
2019-06-25T10:48:59.703Z,33728.00
2019-06-25T10:49:59.768Z,28352.00
2019-06-25T10:50:59.782Z,26464.00
2019-06-25T10:51:59.828Z,26272.00
2019-06-25T10:52:59.863Z,27456.00
2019-06-25T10:54:00.051Z,28992.00
2019-06-25T10:54:59.952Z,30368.00
2019-06-25T10:55:59.992Z,32416.00
2019-06-25T10:57:00.034Z,37952.00
2019-06-25T10:58:00.067Z,47264.00
2019-06-25T10:59:00.117Z,50240.00
2019-06-25T11:00:00.168Z,45696.00
2019-06-25T11:01:00.199Z,39968.00
2019-06-25T11:02:00.234Z,35136.00
2019-06-25T11:03:00.270Z,32384.00
2019-06-25T11:04:00.327Z,30496.00
2019-06-25T11:05:00.568Z,28288.00
2019-06-25T11:06:05.748Z,27008.00
2019-06-25T11:07:07.058Z,25600.00
2019-06-25T11:08:00.473Z,25664.00
2019-06-25T11:09:00.517Z,25856.00
2019-06-25T11:10:00.555Z,25856.00
2019-06-25T11:11:00.658Z,25824.00
2019-06-25T11:12:00.641Z,24992.00
2019-06-25T11:13:03.400Z,23328.00
2019-06-25T11:14:08.089Z,22336.00
2019-06-25T11:15:00.809Z,21920.00
2019-06-25T11:16:00.899Z,21888.00
2019-06-25T11:17:00.941Z,21376.00
2019-06-25T11:18:00.890Z,19584.00
2019-06-25T11:19:00.927Z,21312.00
2019-06-25T11:20:00.958Z,21312.00
2019-06-25T11:21:01.013Z,20608.00
2019-06-25T11:22:01.052Z,20224.00
2019-06-25T11:23:01.130Z,19680.00
2019-06-25T11:24:01.340Z,19456.00
2019-06-25T11:25:01.172Z,19712.00
2019-06-25T11:26:21.277Z,19232.00
2019-06-25T11:27:01.253Z,18688.00
2019-06-25T11:28:01.305Z,18272.00
2019-06-25T11:29:01.331Z,18112.00
2019-06-25T11:30:01.372Z,17968.00
2019-06-25T11:31:01.415Z,17688.00
2019-06-25T11:32:01.609Z,17440.00
2019-06-25T11:33:01.510Z,17368.00
2019-06-25T11:34:01.537Z,17152.00
2019-06-25T11:35:02.054Z,17032.00
2019-06-25T11:36:01.624Z,16920.00
2019-06-25T11:37:01.666Z,16864.00
2019-06-25T11:38:01.699Z,16860.00
2019-06-25T11:39:01.808Z,16740.00
2019-06-25T11:40:01.780Z,16228.00
2019-06-25T11:41:01.821Z,16480.00
2019-06-25T11:42:01.868Z,16300.00
2019-06-25T11:43:01.911Z,16376.00
2019-06-25T11:44:01.942Z,16244.00
2019-06-25T11:45:02.022Z,16060.00
2019-06-25T11:46:02.039Z,15972.00
2019-06-25T11:47:02.065Z,16096.00
2019-06-25T11:48:02.108Z,16584.00
2019-06-25T11:49:02.149Z,16940.00
2019-06-25T11:50:02.197Z,16892.00
2019-06-25T11:51:02.230Z,16664.00
2019-06-25T11:52:02.291Z,16376.00
2019-06-25T11:53:02.347Z,16432.00
2019-06-25T11:54:02.349Z,16432.00
2019-06-25T11:55:02.399Z,15708.00
2019-06-25T11:56:02.435Z,16304.00
2019-06-25T11:57:02.477Z,16556.00
2019-06-25T11:58:02.597Z,16328.00
2019-06-25T11:59:02.554Z,16700.00
2019-06-25T12:00:02.600Z,17224.00
2019-06-25T12:01:02.633Z,16932.00
2019-06-25T12:02:02.681Z,16700.00
2019-06-25T12:03:02.857Z,17664.00
2019-06-25T12:04:02.761Z,18240.00
2019-06-25T12:05:02.803Z,18688.00
2019-06-25T12:06:02.835Z,18688.00
2019-06-25T12:07:02.893Z,18432.00
2019-06-25T12:08:02.916Z,18368.00
2019-06-25T12:09:04.020Z,18336.00
2019-06-25T12:10:03.010Z,18432.00
2019-06-25T12:11:03.043Z,18496.00
2019-06-25T12:12:03.086Z,18624.00
2019-06-25T12:13:03.120Z,18368.00
2019-06-25T12:14:03.159Z,17568.00
2019-06-25T12:15:03.206Z,16624.00
2019-06-25T12:16:03.246Z,16404.00
2019-06-25T12:17:03.297Z,16820.00
2019-06-25T12:18:03.330Z,16516.00
2019-06-25T12:19:03.364Z,16400.00
2019-06-25T12:20:03.412Z,16452.00
2019-06-25T12:21:03.445Z,16544.00
2019-06-25T12:22:03.483Z,17052.00
2019-06-25T12:23:03.531Z,17696.00